Flight Track Log - Related Links

Times and Time Zones

All times are in EDT time to prevent confusion due to time zone crossing. See the AFL150 flight status page for this flight to view local times or setup timezone preferences in your user account.

Time Position Orientation Groundspeed Altitude Reporting Facility
EDT Latitude Longitude Course Direction KTS MPH feet Rate Location/Type
Fri 02:08:00 PM 57.3701 -37.0000 204° Southwest  Level Estimated
Fri 02:09:00 PM 57.3636 -37.2194 267° West  Level FlightAware Approximate
Fri 02:10:00 PM 57.3567 -37.4388 267° West  Level FlightAware Approximate
Fri 02:11:00 PM 57.3494 -37.6580 267° West  Level FlightAware Approximate
Fri 02:12:00 PM 57.3417 -37.8772 266° West  Level FlightAware Approximate
Fri 02:13:00 PM 57.3337 -38.0962 266° West  Level FlightAware Approximate
Fri 02:14:00 PM 57.3252 -38.3152 266° West  Level FlightAware Approximate
Fri 02:15:00 PM 57.3164 -38.5340 266° West  Level FlightAware Approximate
Fri 02:16:00 PM 57.2596 -38.7264 201° Southwest  Level Estimated
Fri 02:17:00 PM 57.2472 -38.9443 264° West  Level FlightAware Approximate
Fri 02:18:00 PM 57.2345 -39.1620 264° West  Level FlightAware Approximate
Fri 02:19:00 PM 57.2214 -39.3796 264° West  Level FlightAware Approximate
Fri 02:20:00 PM 57.2079 -39.5970 264° West  Level FlightAware Approximate
Fri 02:21:00 PM 57.1941 -39.8142 263° West  Level FlightAware Approximate
Fri 02:22:00 PM 57.1798 -40.0313 263° West  Level FlightAware Approximate
Fri 02:23:00 PM 57.1652 -40.2482 263° West  Level FlightAware Approximate
Fri 02:24:00 PM 57.1502 -40.4650 263° West  Level FlightAware Approximate
Fri 02:25:00 PM 57.1349 -40.6815 263° West  Level FlightAware Approximate
Fri 02:26:00 PM 57.0741 -40.8688 201° Southwest  Level Estimated
Fri 02:27:00 PM 57.0533 -41.0833 260° West  Level FlightAware Approximate
Fri 02:27:00 PM 65.0000 -50.0000 241° Southwest 429 494 32,000  Level ETMS Enhanced Traffic Management System
Fri 02:28:00 PM 57.0321 -41.2976 260° West  Level FlightAware Approximate
Fri 02:29:00 PM 57.0106 -41.5117 260° West  Level FlightAware Approximate
Fri 02:30:00 PM 56.9887 -41.7255 259° West  Level FlightAware Approximate
Fri 02:30:36 PM 64.6990 -51.2310 259° West 433 498 32,000  Level FlightAware ADS-B
Fri 02:31:00 PM 56.9664 -41.9391 259° West  Level FlightAware Approximate
Fri 02:31:18 PM 64.6550 -51.4050 239° Southwest 433 498 32,000  Level FlightAware ADS-B
Fri 02:32:08 PM 64.6040 -51.6040 241° Southwest 431 496 32,000  Level FlightAware ADS-B
Fri 02:32:45 PM 64.5660 -51.7530 239° Southwest 430 495 32,000  Level FlightAware ADS-B
Fri 02:33:32 PM 64.5190 -51.9360 239° Southwest 428 493 32,000  Level FlightAware ADS-B
Fri 02:34:08 PM 64.4830 -52.0750 239° Southwest 427 491 32,000  Level FlightAware ADS-B
Fri 02:34:44 PM 64.4450 -52.2170 238° Southwest 425 489 32,000  Level FlightAware ADS-B
Fri 02:35:20 PM 64.4080 -52.3570 239° Southwest 424 488 32,000  Level FlightAware ADS-B
Fri 02:36:08 PM 64.3600 -52.5390 239° Southwest 423 487 32,000  Level FlightAware ADS-B
Fri 02:36:46 PM 64.3210 -52.6840 238° Southwest 422 486 32,000  Level FlightAware ADS-B
Fri 02:37:20 PM 64.2860 -52.8160 239° Southwest 421 484 32,000  Level FlightAware ADS-B
Fri 02:38:13 PM 64.2380 -52.9930 238° Southwest 420 483 32,000  Level FlightAware ADS-B
Fri 02:39:01 PM 64.1960 -53.1470 238° Southwest 420 483 32,000  Level FlightAware ADS-B
Fri 02:40:14 PM 64.1320 -53.3820 238° Southwest 420 483 32,000  Level FlightAware ADS-B
Fri 02:41:02 PM 64.0900 -53.5360 238° Southwest 420 483 32,000  Level FlightAware ADS-B
Fri 02:41:29 PM 64.0660 -53.6220 237° Southwest 420 483 32,000  Level FlightAware ADS-B
Fri 02:42:05 PM 64.0350 -53.7380 239° Southwest 420 483 32,000  Level FlightAware ADS-B
Fri 02:42:41 PM 64.0030 -53.8530 238° Southwest 420 483 32,000  Level FlightAware ADS-B
Fri 02:43:28 PM 63.9620 -54.0030 238° Southwest 420 483 32,000  Level FlightAware ADS-B
Fri 02:44:40 PM 63.8990 -54.2320 238° Southwest 420 483 32,000  Level FlightAware ADS-B
Fri 02:45:03 PM 63.8790 -54.3050 238° Southwest 420 483 32,000  Level FlightAware ADS-B
Fri 02:45:50 PM 63.8380 -54.4550 238° Southwest 420 483 32,000  Level FlightAware ADS-B
Fri 02:46:28 PM 63.8040 -54.5750 237° Southwest 420 483 32,000  Level FlightAware ADS-B
Fri 02:47:04 PM 63.7730 -54.6890 238° Southwest 420 483 32,000  Level FlightAware ADS-B
Fri 02:47:29 PM 63.7510 -54.7690 238° Southwest 420 483 32,000  Level FlightAware ADS-B
Fri 02:49:49 PM 63.5333 -55.4500 235° Southwest 420 483 32,000  Level Gander Center
Fri 02:50:00 PM 63.5742 -55.3103 234° Southwest  Level FlightAware Approximate
Fri 02:50:49 PM 63.4833 -55.6500 241° Southwest 420 483 32,000  Level Gander Center
Fri 02:51:00 PM 63.5034 -55.5235 233° Southwest  Level FlightAware Approximate
Fri 02:51:49 PM 63.4000 -55.8833 231° Southwest 420 483 32,000  Level Gander Center
Fri 02:52:00 PM 63.4339 -55.7402 236° Southwest  Level FlightAware Approximate
Fri 02:52:49 PM 63.3500 -56.0833 241° Southwest 420 483 32,000  Level Gander Center
Fri 02:53:00 PM 63.3674 -55.9559 236° Southwest  Level FlightAware Approximate
Fri 02:53:49 PM 63.2667 -56.3167 232° Southwest 420 483 32,000  Level Gander Center
Fri 02:54:00 PM 63.3005 -56.1707 235° Southwest  Level FlightAware Approximate
Fri 02:54:49 PM 63.2000 -56.4667 225° Southwest 410 472 32,000  Level Gander Center
Fri 02:55:00 PM 63.2333 -56.3844 235° Southwest  Level FlightAware Approximate
Fri 02:55:49 PM 63.1500 -56.7000 245° Southwest 410 472 32,000  Level Gander Center
Fri 02:56:49 PM 63.0667 -56.9000 227° Southwest 410 472 32,000  Level Gander Center
Fri 02:57:49 PM 63.0167 -57.1167 243° Southwest 420 483 32,000  Level Gander Center
Fri 02:58:49 PM 62.9500 -57.3167 234° Southwest 410 472 32,000  Level Gander Center
Fri 02:59:49 PM 62.8667 -57.5000 225° Southwest 410 472 32,000  Level Gander Center
Fri 03:02:00 PM 62.7366 -57.8931 234° Southwest  Level FlightAware Approximate
Fri 03:08:47 PM 62.2833 -59.2167 234° Southwest 170 196 32,000  Level Gander Center
Fri 03:09:00 PM 62.2482 -59.3117 234° Southwest  Level FlightAware Approximate
Fri 03:09:47 PM 62.2167 -59.4333 237° Southwest 380 437 32,000  Level Gander Center
Fri 03:10:00 PM 62.1772 -59.5106 233° Southwest  Level FlightAware Approximate
Fri 03:10:47 PM 62.1333 -59.6500 231° Southwest 410 472 32,000  Level Gander Center
Fri 03:11:00 PM 62.1060 -59.7085 232° Southwest  Level FlightAware Approximate
Fri 03:11:47 PM 62.0667 -59.8333 232° Southwest 400 460 32,000  Level Gander Center
Fri 03:12:00 PM 62.0345 -59.9055 232° Southwest  Level FlightAware Approximate
Fri 03:12:47 PM 61.9833 -59.9833 220° Southwest 390 449 32,000  Level Gander Center
Fri 03:13:00 PM 61.9645 -60.1048 234° Southwest  Level FlightAware Approximate
Fri 03:13:47 PM 61.9333 -60.1500 238° Southwest 390 449 32,000  Level Gander Center
Fri 03:14:00 PM 61.8959 -60.3057 234° Southwest  Level FlightAware Approximate
Fri 03:14:47 PM 61.8667 -60.3667 237° Southwest 400 460 32,000  Level Gander Center
Fri 03:15:47 PM 61.8167 -60.5833 244° Southwest 400 460 32,000  Level Gander Center
Fri 03:16:47 PM 61.7500 -60.7833 235° Southwest 410 472 32,000  Level Gander Center
Fri 03:17:47 PM 61.6833 -60.9667 233° Southwest 400 460 32,000  Level Gander Center
Fri 03:18:47 PM 61.6167 -61.1500 233° Southwest 400 460 32,000  Level Gander Center
Fri 03:19:47 PM 61.5500 -61.3167 230° Southwest 400 460 32,000  Level Gander Center
Fri 03:20:47 PM 61.4833 -61.5333 237° Southwest 400 460 32,000  Level Gander Center
Fri 03:21:47 PM 61.4333 -61.7000 238° Southwest 400 460 32,000  Level Gander Center
Fri 03:22:47 PM 61.3667 -61.8667 230° Southwest 400 460 32,000  Level Gander Center
Fri 03:23:47 PM 61.3000 -62.0833 237° Southwest 390 449 32,000  Level Gander Center
Fri 03:24:47 PM 61.2333 -62.2500 230° Southwest 390 449 32,000  Level Gander Center
Fri 03:25:47 PM 61.1667 -62.4167 230° Southwest 390 449 32,000  Level Gander Center
Fri 03:26:47 PM 61.0833 -62.5833 224° Southwest 380 437 32,000  Level Gander Center
Fri 03:27:47 PM 61.0333 -62.7500 238° Southwest 380 437 32,000  Level Gander Center
Fri 03:28:47 PM 60.9667 -62.9333 233° Southwest 380 437 32,000  Level Gander Center
Fri 03:30:03 PM 60.9000 -63.0667 224° Southwest 380 437 32,000  Level Montreal Center
Fri 03:31:03 PM 60.8333 -63.2667 236° Southwest 370 426 32,000  Level Montreal Center
Fri 03:32:03 PM 60.7667 -63.4333 231° Southwest 360 414 32,000  Level Montreal Center
Fri 03:33:03 PM 60.7000 -63.6000 231° Southwest 360 414 32,000  Level Montreal Center
Fri 03:34:03 PM 60.6333 -63.7667 231° Southwest 360 414 32,000 350 Level Montreal Center
Fri 03:35:03 PM 60.5833 -63.9167 236° Southwest 360 414 32,700 950 Climbing Montreal Center
Fri 03:36:03 PM 60.5167 -64.0833 231° Southwest 360 414 33,900 650 Climbing Montreal Center
Fri 03:37:03 PM 60.4500 -64.2500 231° Southwest 370 426 34,000 50 Climbing Montreal Center
Fri 03:38:03 PM 60.3833 -64.4000 228° Southwest 370 426 34,000  Level Montreal Center
Fri 03:39:03 PM 60.3167 -64.5667 231° Southwest 360 414 34,000  Level Montreal Center
Fri 03:40:03 PM 60.2667 -64.7167 236° Southwest 360 414 34,000  Level Montreal Center
Fri 03:41:03 PM 60.2000 -64.8833 231° Southwest 350 403 34,000  Level Montreal Center
Fri 03:42:03 PM 60.1333 -65.0333 228° Southwest 360 414 34,000  Level Montreal Center
Fri 03:43:03 PM 60.0833 -65.1833 236° Southwest 360 414 34,000  Level Montreal Center
Fri 03:44:03 PM 60.0000 -65.3167 219° Southwest 360 414 34,000  Level Montreal Center
Fri 03:45:03 PM 59.9333 -65.4667 228° Southwest 360 414 34,000  Level Montreal Center
Fri 03:46:03 PM 59.8667 -65.6333 231° Southwest 360 414 34,000  Level Montreal Center
Fri 03:47:03 PM 59.8000 -65.7833 229° Southwest 360 414 34,000  Level Montreal Center
Fri 03:48:03 PM 59.7333 -65.9333 229° Southwest 360 414 34,000  Level Montreal Center
Fri 03:49:03 PM 59.6500 -66.1000 225° Southwest 360 414 34,000  Level Montreal Center
Fri 03:50:03 PM 59.6000 -66.2167 230° Southwest 360 414 34,000  Level Montreal Center
Fri 03:51:03 PM 59.5167 -66.3667 222° Southwest 360 414 34,000  Level Montreal Center
Fri 03:52:03 PM 59.4500 -66.5167 229° Southwest 360 414 34,000  Level Montreal Center
Fri 03:53:03 PM 59.4000 -66.6667 237° Southwest 360 414 34,000  Level Montreal Center
Fri 03:54:03 PM 59.3167 -66.7833 216° Southwest 360 414 34,000  Level Montreal Center
Fri 03:55:03 PM 59.2333 -66.9333 223° Southwest 360 414 34,000  Level Montreal Center
Fri 03:56:09 PM 59.1667 -67.1333 237° Southwest 360 414 34,000  Level Gander Center
Fri 03:57:03 PM 59.0833 -67.1500 186° South 350 403 34,000  Level Montreal Center
Fri 03:58:03 PM 59.0167 -67.2667 222° Southwest 330 380 34,000  Level Montreal Center
Fri 03:59:03 PM 58.9333 -67.3500 207° Southwest 330 380 34,000  Level Montreal Center
Fri 04:00:03 PM 58.8500 -67.4667 216° Southwest 330 380 34,000  Level Montreal Center
Fri 04:01:03 PM 58.7667 -67.5500 207° Southwest 320 368 34,000  Level Montreal Center
Fri 04:02:03 PM 58.7000 -67.6333 213° Southwest 320 368 34,000  Level Montreal Center
Fri 04:03:03 PM 58.6333 -67.7500 222° Southwest 320 368 34,000  Level Montreal Center
Fri 04:04:03 PM 58.5500 -67.8333 208° Southwest 330 380 34,000  Level Montreal Center
Fri 04:05:03 PM 58.4833 -67.9500 222° Southwest 330 380 34,000  Level Montreal Center
Fri 04:06:03 PM 58.4000 -68.0167 203° Southwest 330 380 34,000  Level Montreal Center
Fri 04:07:03 PM 58.3167 -68.1333 216° Southwest 340 391 34,000  Level Montreal Center
Fri 04:08:03 PM 58.2333 -68.2167 208° Southwest 340 391 34,000  Level Montreal Center
Fri 04:09:03 PM 58.1333 -68.3333 212° Southwest 350 403 34,000  Level Montreal Center
Fri 04:10:50 PM 58.0167 -68.4833 214° Southwest 340 391 34,000  Level Montreal Center
Fri 04:11:50 PM 57.9500 -68.6000 223° Southwest 340 391 34,000  Level Montreal Center
Fri 04:12:50 PM 57.8833 -68.7167 223° Southwest 340 391 34,000  Level Montreal Center
Fri 04:13:50 PM 57.7833 -68.8167 208° Southwest 340 391 34,000  Level Montreal Center
Fri 04:14:50 PM 57.7167 -68.9333 223° Southwest 340 391 34,000  Level Montreal Center
Fri 04:15:50 PM 57.6500 -69.0000 208° Southwest 340 391 34,000  Level Montreal Center
Fri 04:16:50 PM 57.5667 -69.1167 217° Southwest 340 391 34,000  Level Montreal Center
Fri 04:17:50 PM 57.4833 -69.2333 217° Southwest 340 391 34,000  Level Montreal Center
Fri 04:18:51 PM 57.4167 -69.3333 219° Southwest 340 391 34,000  Level Montreal Center
Fri 04:19:51 PM 57.3333 -69.4500 217° Southwest 340 391 34,000  Level Montreal Center
Fri 04:20:51 PM 57.2500 -69.5500 213° Southwest 340 391 34,000  Level Montreal Center
Fri 04:21:51 PM 57.1667 -69.6500 213° Southwest 340 391 34,000  Level Montreal Center
Fri 04:22:51 PM 57.0833 -69.7333 209° Southwest 350 403 34,000  Level Montreal Center
Fri 04:23:51 PM 57.0167 -69.8333 219° Southwest 350 403 34,000  Level Montreal Center
Fri 04:24:51 PM 56.9333 -69.9500 217° Southwest 350 403 34,000  Level Montreal Center
Fri 04:25:51 PM 56.8500 -70.0500 213° Southwest 350 403 34,000  Level Montreal Center
Fri 04:26:51 PM 56.7667 -70.1500 213° Southwest 350 403 34,000  Level Montreal Center
Fri 04:28:29 PM 56.6500 -70.3833 228° Southwest 360 414 34,000  Level Gander Center
Fri 04:29:29 PM 56.5500 -70.4833 209° Southwest 360 414 34,000  Level Gander Center
Fri 04:30:29 PM 56.4667 -70.5833 214° Southwest 360 414 34,000  Level Gander Center
Fri 04:31:29 PM 56.3833 -70.6833 214° Southwest 360 414 34,000  Level Gander Center
Fri 04:32:29 PM 56.3000 -70.7833 214° Southwest 360 414 34,000  Level Gander Center
Fri 04:33:29 PM 56.2167 -70.8833 214° Southwest 360 414 34,000  Level Gander Center
Fri 04:34:29 PM 56.1500 -70.9833 220° Southwest 360 414 34,000  Level Gander Center
Fri 04:35:29 PM 56.0500 -71.0833 209° Southwest 360 414 34,000  Level Gander Center
Fri 04:36:29 PM 55.9833 -71.1833 220° Southwest 360 414 34,000  Level Gander Center
Fri 04:37:29 PM 55.8833 -71.2833 209° Southwest 370 426 34,000  Level Gander Center
Fri 04:38:29 PM 55.8167 -71.3833 220° Southwest 360 414 34,000  Level Gander Center
Fri 04:39:29 PM 55.7167 -71.4833 209° Southwest 370 426 34,000  Level Gander Center
Fri 04:40:29 PM 55.6333 -71.5667 209° Southwest 370 426 34,000  Level Gander Center
Fri 04:41:29 PM 55.5500 -71.6667 214° Southwest 380 437 34,000  Level Gander Center
Fri 04:42:29 PM 55.4667 -71.8000 222° Southwest 370 426 34,000  Level Gander Center
Fri 04:43:29 PM 55.3667 -71.8833 205° Southwest 380 437 34,000  Level Gander Center
Fri 04:44:29 PM 55.3000 -71.9833 221° Southwest 380 437 34,000  Level Gander Center
Fri 04:45:29 PM 55.2000 -72.0833 210° Southwest 380 437 34,000  Level Gander Center
Fri 04:46:29 PM 55.1000 -72.2000 214° Southwest 380 437 34,000  Level Gander Center
Fri 04:47:29 PM 55.0333 -72.3000 221° Southwest 380 437 34,000  Level Gander Center
Fri 04:48:29 PM 54.9333 -72.4000 210° Southwest 380 437 34,000  Level Gander Center
Fri 04:49:29 PM 54.8500 -72.4833 210° Southwest 390 449 34,000  Level Gander Center
Fri 04:50:29 PM 54.7500 -72.6000 214° Southwest 390 449 34,000  Level Gander Center
Fri 04:51:29 PM 54.6667 -72.7000 215° Southwest 390 449 34,000  Level Gander Center
Fri 04:52:29 PM 54.5833 -72.8000 215° Southwest 390 449 34,000  Level Gander Center
Fri 04:53:29 PM 54.4667 -72.9000 206° Southwest 390 449 34,000  Level Gander Center
Fri 04:54:29 PM 54.4000 -73.0000 221° Southwest 390 449 34,000  Level Gander Center
Fri 04:55:29 PM 54.3000 -73.1167 214° Southwest 400 460 34,000  Level Gander Center
Fri 04:56:29 PM 54.2000 -73.2000 206° Southwest 400 460 34,000  Level Gander Center
Fri 04:57:29 PM 54.1167 -73.3000 215° Southwest 400 460 34,000  Level Gander Center
Fri 04:58:29 PM 54.0167 -73.4167 214° Southwest 400 460 34,000  Level Gander Center
Fri 04:59:29 PM 53.9167 -73.5000 206° Southwest 400 460 34,000  Level Gander Center
Fri 05:00:29 PM 53.8333 -73.6167 220° Southwest 400 460 34,000  Level Gander Center
Fri 05:01:29 PM 53.7333 -73.7000 206° Southwest 410 472 34,000  Level Gander Center
Fri 05:02:29 PM 53.6333 -73.7833 206° Southwest 410 472 34,000  Level Gander Center
Fri 05:03:29 PM 53.5333 -73.9000 215° Southwest 410 472 34,000  Level Gander Center
Fri 05:04:29 PM 53.4333 -73.9833 206° Southwest 410 472 34,000  Level Gander Center
Fri 05:05:29 PM 53.3167 -74.0667 203° Southwest 410 472 34,000  Level Gander Center
Fri 05:06:29 PM 53.2167 -74.1500 207° Southwest 420 483 34,000  Level Gander Center
Fri 05:07:29 PM 53.1167 -74.2333 207° Southwest 420 483 34,000  Level Gander Center
Fri 05:08:29 PM 53.0000 -74.3333 207° Southwest 420 483 34,000  Level Gander Center
Fri 05:09:29 PM 52.9167 -74.4167 211° Southwest 420 483 34,000  Level Gander Center
Fri 05:10:29 PM 52.8000 -74.5000 203° Southwest 420 483 34,000  Level Gander Center
Fri 05:11:29 PM 52.7000 -74.5833 207° Southwest 420 483 34,000  Level Gander Center
Fri 05:12:29 PM 52.6000 -74.6500 202° Southwest 430 495 34,000  Level Gander Center
Fri 05:13:29 PM 52.4833 -74.7667 211° Southwest 420 483 34,000  Level Gander Center
Fri 05:14:29 PM 52.3667 -74.8333 199° South 420 483 34,000  Level Gander Center
Fri 05:15:29 PM 52.2833 -74.9167 211° Southwest 430 495 34,000  Level Gander Center
Fri 05:16:29 PM 52.1667 -75.0000 204° Southwest 430 495 34,000  Level Gander Center
Fri 05:17:29 PM 52.0667 -75.0667 202° Southwest 430 495 34,000  Level Gander Center
Fri 05:18:29 PM 51.9667 -75.1833 216° Southwest 430 495 34,000  Level Gander Center
Fri 05:19:29 PM 51.8500 -75.2500 199° South 420 483 34,000  Level Gander Center
Fri 05:20:29 PM 51.7500 -75.3333 207° Southwest 420 483 34,000  Level Gander Center
Fri 05:21:51 PM 51.6000 -75.4000 195° South 420 483 34,000  Level Montreal Center
Fri 05:22:51 PM 51.4833 -75.4833 204° Southwest 420 483 34,000  Level Montreal Center
Fri 05:23:51 PM 51.3833 -75.5667 207° Southwest 420 483 34,000  Level Montreal Center
Fri 05:24:51 PM 51.2667 -75.6500 204° Southwest 420 483 34,000  Level Montreal Center
Fri 05:25:51 PM 51.1667 -75.7167 203° Southwest 420 483 34,000  Level Montreal Center
Fri 05:26:51 PM 51.0667 -75.8000 208° Southwest 420 483 34,000  Level Montreal Center
Fri 05:27:51 PM 50.9500 -75.8833 204° Southwest 420 483 34,000  Level Montreal Center
Fri 05:28:51 PM 50.8500 -75.9667 208° Southwest 420 483 34,000  Level Montreal Center
Fri 05:29:51 PM 50.7500 -76.0500 208° Southwest 420 483 34,000  Level Montreal Center
Fri 05:30:51 PM 50.6333 -76.1167 200° South 410 472 34,000  Level Montreal Center
Fri 05:31:51 PM 50.5333 -76.2000 208° Southwest 400 460 34,000  Level Montreal Center
Fri 05:32:51 PM 50.4500 -76.2500 201° Southwest 400 460 34,000  Level Montreal Center
Fri 05:33:51 PM 50.3333 -76.3333 205° Southwest 410 472 34,000  Level Montreal Center
Fri 05:34:51 PM 50.2333 -76.4167 208° Southwest 410 472 34,000  Level Montreal Center
Fri 05:35:51 PM 50.1333 -76.4833 203° Southwest 410 472 34,000  Level Montreal Center
Fri 05:36:51 PM 50.0167 -76.5667 205° Southwest 410 472 34,000  Level Montreal Center
Fri 05:37:51 PM 49.9167 -76.6500 208° Southwest 400 460 34,000  Level Montreal Center
Fri 05:38:51 PM 49.8167 -76.7000 198° South 410 472 34,000  Level Montreal Center
Fri 05:39:51 PM 49.7000 -76.7667 200° South 400 460 34,000  Level Montreal Center
Fri 05:40:51 PM 49.6000 -76.8500 208° Southwest 410 472 34,000  Level Montreal Center
Fri 05:41:51 PM 49.5000 -76.9167 203° Southwest 390 449 34,000  Level Montreal Center
Fri 05:42:51 PM 49.4000 -77.0000 208° Southwest 420 483 34,000  Level Montreal Center
Fri 05:43:51 PM 49.2833 -77.0667 200° South 410 472 34,000  Level Montreal Center
Fri 05:44:51 PM 49.2000 -77.1500 213° Southwest 400 460 34,000  Level Montreal Center
Fri 05:45:51 PM 49.0833 -77.2167 201° Southwest 420 483 34,000  Level Montreal Center
Fri 05:46:51 PM 48.9833 -77.3000 209° Southwest 420 483 34,000  Level Montreal Center
Fri 05:47:51 PM 48.8667 -77.3500 196° South 420 483 34,000  Level Montreal Center
Fri 05:48:51 PM 48.7667 -77.4167 204° Southwest 420 483 34,000  Level Montreal Center
Fri 05:49:51 PM 48.6500 -77.5000 205° Southwest 420 483 34,000  Level Montreal Center
Fri 05:55:47 PM 48.0160 -77.9130 205° Southwest 427 491 34,000  Level FlightAware ADS-B
Fri 05:56:40 PM 47.9270 -77.9650 201° Southwest 427 491 34,000  Level FlightAware ADS-B
Fri 05:57:41 PM 47.8310 -78.0200 201° Southwest 427 491 34,000  Level FlightAware ADS-B
Fri 05:58:29 PM 47.7560 -78.0630 201° Southwest 427 491 34,000  Level FlightAware ADS-B
Fri 05:59:07 PM 47.6420 -78.1310 202° Southwest 430 495 34,000  Level FlightAware ADS-B
Fri 06:00:04 PM 47.5380 -78.1910 201° Southwest 431 496 34,000  Level FlightAware ADS-B
Fri 06:00:31 PM 47.4860 -78.2210 201° Southwest 431 496 34,000  Level FlightAware ADS-B
Fri 06:01:27 PM 47.3840 -78.2790 201° Southwest 431 496 34,000  Level FlightAware ADS-B
Fri 06:01:55 PM 47.3300 -78.3100 201° Southwest 430 495 34,000  Level FlightAware ADS-B
Fri 06:02:55 PM 47.2200 -78.3720 201° Southwest 430 495 34,000  Level FlightAware ADS-B
Fri 06:03:20 PM 47.1750 -78.3980 201° Southwest 429 494 34,000  Level FlightAware ADS-B
Fri 06:04:21 PM 47.0610 -78.4630 201° Southwest 430 495 34,000  Level FlightAware ADS-B
Fri 06:04:55 PM 46.9970 -78.4980 200° South 429 494 34,000  Level FlightAware ADS-B
Fri 06:06:00 PM 46.8780 -78.5650 201° Southwest 428 493 34,000  Level FlightAware ADS-B
Fri 06:06:29 PM 46.8230 -78.5960 201° Southwest 426 490 34,000  Level FlightAware ADS-B
Fri 06:07:00 PM 46.7670 -78.6270 201° Southwest 426 490 34,000  Level FlightAware ADS-B
Fri 06:07:29 PM 46.7130 -78.6570 201° Southwest 426 490 34,000  Level FlightAware ADS-B
Fri 06:07:56 PM 46.6650 -78.6840 201° Southwest 425 489 34,000 434 Level FlightAware ADS-B
Fri 06:08:52 PM 46.5610 -78.7410 201° Southwest 421 484 34,600 767 Climbing FlightAware ADS-B
Fri 06:09:22 PM 46.5070 -78.7710 201° Southwest 424 488 35,100 867 Climbing FlightAware ADS-B
Fri 06:10:22 PM 46.3970 -78.8310 201° Southwest 418 481 35,900 514 Climbing FlightAware ADS-B
Fri 06:11:07 PM 46.3170 -78.8750 201° Southwest 419 482 36,000 58 Climbing FlightAware ADS-B
Fri 06:12:06 PM 46.2120 -78.9330 201° Southwest 419 482 36,000  Level FlightAware ADS-B
Fri 06:12:36 PM 46.1580 -78.9620 200° South 416 479 36,000  Level FlightAware ADS-B
Fri 06:13:17 PM 46.0820 -79.0030 201° Southwest 416 479 36,000  Level FlightAware ADS-B
Fri 06:13:50 PM 46.0250 -79.0340 201° Southwest 415 478 36,000  Level FlightAware ADS-B
Fri 06:14:29 PM 45.9530 -79.0730 201° Southwest 416 479 36,000  Level FlightAware ADS-B
Fri 06:15:25 PM 45.8520 -79.1270 200° South 418 481 36,000  Level FlightAware ADS-B
Fri 06:16:19 PM 45.7540 -79.1800 201° Southwest 419 482 36,000  Level FlightAware ADS-B
Fri 06:16:58 PM 45.6850 -79.2170 201° Southwest 420 483 36,000  Level FlightAware ADS-B
Fri 06:17:48 PM 45.5910 -79.2670 200° South 421 484 36,000  Level FlightAware ADS-B
Fri 06:18:37 PM 45.5020 -79.3140 200° South 422 486 36,000  Level FlightAware ADS-B
Fri 06:19:03 PM 45.4550 -79.3390 200° South 421 484 36,000  Level FlightAware ADS-B
Fri 06:19:41 PM 45.3880 -79.3740 200° South 421 484 36,000  Level FlightAware ADS-B
Fri 06:20:39 PM 45.2800 -79.4310 200° South 421 484 36,000  Level FlightAware ADS-B
Fri 06:21:07 PM 45.2250 -79.4540 196° South 430 495 36,000  Level FlightAware ADS-B
Fri 06:21:57 PM 45.1280 -79.4770 189° South 430 495 36,000  Level FlightAware ADS-B
Fri 06:22:27 PM 45.0670 -79.4910 189° South 431 496 36,000  Level FlightAware ADS-B
Fri 06:22:57 PM 45.0140 -79.5030 189° South 432 497 36,000  Level FlightAware ADS-B
Fri 06:23:52 PM 44.9010 -79.5300 190° South 432 497 36,000  Level FlightAware ADS-B
Fri 06:24:44 PM 44.7990 -79.5550 190° South 430 495 36,000  Level FlightAware ADS-B
Fri 06:25:16 PM 44.7360 -79.5700 190° South 429 494 36,000  Level FlightAware ADS-B
Fri 06:25:40 PM 44.6900 -79.5810 190° South 429 494 36,000  Level FlightAware ADS-B
Fri 06:26:24 PM 44.6040 -79.6020 190° South 430 495 36,000  Level FlightAware ADS-B
Fri 06:27:09 PM 44.5170 -79.6230 190° South 430 495 36,000  Level FlightAware ADS-B
Fri 06:28:01 PM 44.4130 -79.6490 190° South 431 496 36,000  Level FlightAware ADS-B
Fri 06:28:38 PM 44.3400 -79.6660 189° South 433 498 36,000  Level FlightAware ADS-B
Fri 06:29:26 PM 44.2470 -79.6880 190° South 432 497 36,000  Level FlightAware ADS-B
Fri 06:29:58 PM 44.1850 -79.7110 195° South 423 487 36,000  Level FlightAware ADS-B
Fri 06:30:54 PM 44.0910 -79.7860 210° Southwest 415 478 36,000  Level FlightAware ADS-B
Fri 06:31:45 PM 44.0100 -79.8610 214° Southwest 415 478 36,000  Level FlightAware ADS-B
Fri 06:32:22 PM 43.9520 -79.9150 214° Southwest 415 478 36,000  Level FlightAware ADS-B
Fri 06:32:50 PM 43.9080 -79.9560 214° Southwest 415 478 36,000  Level FlightAware ADS-B
Fri 06:33:22 PM 43.8560 -80.0030 213° Southwest 415 478 36,000  Level FlightAware ADS-B
Fri 06:34:20 PM 43.7620 -80.0900 214° Southwest 417 480 36,000  Level FlightAware ADS-B
Fri 06:34:51 PM 43.7120 -80.1340 212° Southwest 417 480 36,000  Level FlightAware ADS-B
Fri 06:35:40 PM 43.6330 -80.2060 213° Southwest 417 480 36,000  Level FlightAware ADS-B
Fri 06:36:04 PM 43.5949 -80.2416 214° Southwest 416 479 36,000  Level FlightAware ADS-B (ETHL)
Fri 06:37:31 PM 43.4550 -80.3680 213° Southwest 415 478 36,000  Level FlightAware ADS-B
Fri 06:38:03 PM 43.4114 -80.4076 213° Southwest 416 479 36,000  Level FlightAware ADS-B (ETHL)
Fri 06:39:19 PM 43.2830 -80.5230 213° Southwest 414 476 36,000  Level FlightAware ADS-B
Fri 06:40:05 PM 43.2080 -80.5900 213° Southwest 414 476 36,000  Level FlightAware ADS-B
Fri 06:40:47 PM 43.1420 -80.6490 213° Southwest 413 475 36,000  Level FlightAware ADS-B
Fri 06:41:39 PM 43.0580 -80.7240 213° Southwest 414 476 36,000  Level FlightAware ADS-B
Fri 06:42:12 PM 43.0060 -80.7700 213° Southwest 413 475 36,000  Level FlightAware ADS-B
Fri 06:42:44 PM 42.9530 -80.8170 213° Southwest 414 476 36,000  Level FlightAware ADS-B
Fri 06:43:36 PM 42.8720 -80.8890 213° Southwest 415 478 36,000  Level FlightAware ADS-B
Fri 06:44:34 PM 42.7760 -80.9710 212° Southwest 415 478 36,000  Level FlightAware ADS-B
Fri 06:45:18 PM 42.7060 -81.0310 212° Southwest 415 478 36,000  Level FlightAware ADS-B
Fri 06:46:05 PM 42.6310 -81.0950 212° Southwest 414 476 36,000  Level FlightAware ADS-B
Fri 06:46:49 PM 42.5590 -81.1570 212° Southwest 414 476 36,000  Level FlightAware ADS-B
Fri 06:47:32 PM 42.4900 -81.2160 212° Southwest 414 476 36,000  Level FlightAware ADS-B
Fri 06:48:33 PM 42.3970 -81.2950 212° Southwest 414 476 36,000  Level FlightAware ADS-B
Fri 06:49:22 PM 42.3100 -81.3690 212° Southwest 413 475 36,000  Level FlightAware ADS-B
Fri 06:50:11 PM 42.2320 -81.4350 212° Southwest 412 474 36,000  Level FlightAware ADS-B
Fri 06:50:44 PM 42.1770 -81.4820 212° Southwest 412 474 36,000  Level FlightAware ADS-B
Fri 06:51:40 PM 42.0870 -81.5580 212° Southwest 412 474 36,000  Level FlightAware ADS-B
Fri 06:52:36 PM 41.9960 -81.6340 212° Southwest 412 474 36,000  Level FlightAware ADS-B
Fri 06:53:25 PM 41.9180 -81.6990 212° Southwest 412 474 36,000  Level FlightAware ADS-B
Fri 06:54:15 PM 41.8380 -81.7660 212° Southwest 411 473 36,000  Level FlightAware ADS-B
Fri 06:54:51 PM 41.7790 -81.8150 212° Southwest 410 472 36,000  Level FlightAware ADS-B
Fri 06:55:31 PM 41.7140 -81.8690 212° Southwest 411 473 36,000  Level FlightAware ADS-B
Fri 06:56:22 PM 41.6310 -81.9360 211° Southwest 414 476 36,000  Level FlightAware ADS-B
Fri 06:57:16 PM 41.5330 -81.9910 203° Southwest 428 493 36,000  Level FlightAware ADS-B
Fri 06:57:52 PM 41.4650 -82.0200 198° South 429 494 36,000  Level FlightAware ADS-B
Fri 06:58:32 PM 41.3900 -82.0520 198° South 426 490 36,000  Level FlightAware ADS-B
Fri 06:59:16 PM 41.3070 -82.0890 199° South 425 489 36,000  Level FlightAware ADS-B
Fri 07:00:02 PM 41.2230 -82.1260 198° South 423 487 36,000  Level FlightAware ADS-B
Fri 07:00:51 PM 41.1390 -82.1630 198° South 421 484 36,000  Level FlightAware ADS-B
Fri 07:01:38 PM 41.0450 -82.2040 198° South 419 482 36,000  Level FlightAware ADS-B
Fri 07:02:36 PM 40.9390 -82.2500 198° South 419 482 36,000  Level FlightAware ADS-B
Fri 07:03:29 PM 40.8420 -82.2920 198° South 419 482 36,000  Level FlightAware ADS-B
Fri 07:04:22 PM 40.7420 -82.3290 196° South 423 487 36,000  Level FlightAware ADS-B
Fri 07:05:05 PM 40.6610 -82.3570 195° South 424 488 36,000  Level FlightAware ADS-B
Fri 07:06:03 PM 40.5510 -82.3940 194° South 422 486 36,000  Level FlightAware ADS-B
Fri 07:06:47 PM 40.4680 -82.4230 195° South 421 484 36,000  Level FlightAware ADS-B
Fri 07:07:42 PM 40.3640 -82.4580 194° South 421 484 36,000  Level FlightAware ADS-B
Fri 07:08:18 PM 40.2950 -82.4820 195° South 421 484 36,000  Level FlightAware ADS-B
Fri 07:09:06 PM 40.2040 -82.5130 195° South 420 483 36,000  Level FlightAware ADS-B
Fri 07:09:58 PM 40.1060 -82.5470 195° South 421 484 36,000  Level FlightAware ADS-B
Fri 07:10:56 PM 39.9970 -82.5840 195° South 421 484 36,000  Level FlightAware ADS-B
Fri 07:11:28 PM 39.9450 -82.6020 195° South 421 484 36,000  Level FlightAware ADS-B
Fri 07:12:21 PM 39.8380 -82.6380 194° South 422 486 36,000  Level FlightAware ADS-B
Fri 07:12:57 PM 39.7710 -82.6600 194° South 422 486 36,000  Level FlightAware ADS-B
Fri 07:13:25 PM 39.7190 -82.6780 195° South 422 486 36,000  Level FlightAware ADS-B
Fri 07:14:18 PM 39.6190 -82.7120 195° South 421 484 36,000  Level FlightAware ADS-B
Fri 07:15:09 PM 39.5220 -82.7440 194° South 421 484 36,000  Level FlightAware ADS-B
Fri 07:15:52 PM 39.4430 -82.7710 195° South 421 484 36,000  Level FlightAware ADS-B
Fri 07:16:45 PM 39.3400 -82.8050 194° South 420 483 36,000  Level FlightAware ADS-B
Fri 07:17:41 PM 39.2360 -82.8390 194° South 417 480 36,000  Level FlightAware ADS-B
Fri 07:18:13 PM 39.1750 -82.8600 195° South 417 480 36,000  Level FlightAware ADS-B
Fri 07:19:02 PM 39.0860 -82.8890 194° South 416 479 36,000  Level FlightAware ADS-B
Fri 07:19:47 PM 39.0000 -82.9180 195° South 415 478 36,000  Level FlightAware ADS-B
Fri 07:20:32 PM 38.9160 -82.9450 194° South 414 476 36,000  Level FlightAware ADS-B
Fri 07:21:00 PM 38.8670 -82.9610 194° South 414 476 36,000  Level FlightAware ADS-B
Fri 07:21:42 PM 38.7890 -82.9870 195° South 413 475 36,000  Level FlightAware ADS-B
Fri 07:22:15 PM 38.7236 -83.0082 194° South 413 475 36,000  Level FlightAware ADS-B
Fri 07:23:07 PM 38.6274 -83.0397 194° South 414 476 36,000  Level FlightAware ADS-B
Fri 07:23:41 PM 38.5644 -83.0602 194° South 416 479 36,000  Level FlightAware ADS-B
Fri 07:24:22 PM 38.4880 -83.0850 194° South 414 476 36,000  Level FlightAware ADS-B
Fri 07:25:10 PM 38.3990 -83.1140 194° South 414 476 36,000  Level FlightAware ADS-B
Fri 07:26:02 PM 38.3040 -83.1450 194° South 416 479 36,000  Level FlightAware ADS-B
Fri 07:26:42 PM 38.2300 -83.1680 194° South 416 479 36,000  Level FlightAware ADS-B
Fri 07:26:57 PM 38.1985 -83.1786 195° South 417 480 36,000  Level FlightAware ADS-B
Fri 07:27:27 PM 38.1420 -83.1968 194° South 418 481 36,000  Level FlightAware ADS-B
Fri 07:27:59 PM 38.0817 -83.2162 194° South 418 481 36,000  Level FlightAware ADS-B
Fri 07:28:49 PM 37.9885 -83.2462 194° South 418 481 36,000  Level FlightAware ADS-B
Fri 07:29:22 PM 37.9265 -83.2659 194° South 419 482 36,000  Level FlightAware ADS-B
Fri 07:29:56 PM 37.8629 -83.2862 194° South 421 484 36,000  Level FlightAware ADS-B
Fri 07:30:27 PM 37.8052 -83.3047 194° South 421 484 36,000  Level FlightAware ADS-B
Fri 07:30:58 PM 37.7456 -83.3237 194° South 420 483 36,000  Level FlightAware ADS-B
Fri 07:31:30 PM 37.6865 -83.3424 194° South 419 482 36,000  Level FlightAware ADS-B
Fri 07:32:00 PM 37.6287 -83.3608 194° South 419 482 36,000  Level FlightAware ADS-B
Fri 07:32:45 PM 37.5441 -83.3874 194° South 419 482 36,000  Level FlightAware ADS-B
Fri 07:33:15 PM 37.4878 -83.4052 194° South 419 482 36,000  Level FlightAware ADS-B
Fri 07:33:46 PM 37.4311 -83.4232 194° South 419 482 36,000  Level FlightAware ADS-B
Fri 07:34:37 PM 37.3338 -83.4539 194° South 419 482 36,000  Level FlightAware ADS-B
Fri 07:35:09 PM 37.2747 -83.4724 194° South 420 483 36,000  Level FlightAware ADS-B
Fri 07:35:40 PM 37.2155 -83.4910 194° South 421 484 36,000  Level FlightAware ADS-B
Fri 07:36:18 PM 37.1448 -83.5131 194° South 421 484 36,000  Level FlightAware ADS-B
Fri 07:36:49 PM 37.0846 -83.5319 194° South 423 487 36,000  Level FlightAware ADS-B
Fri 07:37:20 PM 37.0269 -83.5500 194° South 424 488 36,000  Level FlightAware ADS-B
Fri 07:38:03 PM 36.9446 -83.5755 194° South 425 489 36,000  Level FlightAware ADS-B
Fri 07:38:33 PM 36.8875 -83.5933 194° South 424 488 36,000  Level FlightAware ADS-B
Fri 07:39:05 PM 36.8270 -83.6121 194° South 425 489 36,000  Level FlightAware ADS-B
Fri 07:39:37 PM 36.7664 -83.6309 194° South 424 488 36,000  Level FlightAware ADS-B
Fri 07:40:08 PM 36.7073 -83.6491 194° South 424 488 36,000  Level FlightAware ADS-B
Fri 07:40:38 PM 36.6498 -83.6669 194° South 423 487 36,000  Level FlightAware ADS-B
Fri 07:41:08 PM 36.5922 -83.6846 194° South 422 486 36,000  Level FlightAware ADS-B
Fri 07:41:38 PM 36.5355 -83.7021 194° South 421 484 36,000  Level FlightAware ADS-B
Fri 07:42:09 PM 36.4766 -83.7202 194° South 420 483 36,000  Level FlightAware ADS-B
Fri 07:42:40 PM 36.4184 -83.7381 194° South 420 483 36,000  Level FlightAware ADS-B
Fri 07:43:10 PM 36.3614 -83.7556 194° South 420 483 36,000  Level FlightAware ADS-B
Fri 07:43:42 PM 36.3019 -83.7737 194° South 422 486 36,000  Level FlightAware ADS-B
Fri 07:44:12 PM 36.2447 -83.7912 194° South 422 486 36,000  Level FlightAware ADS-B
Fri 07:44:42 PM 36.1874 -83.8088 194° South 423 487 36,000  Level FlightAware ADS-B
Fri 07:45:22 PM 36.1121 -83.8317 194° South 423 487 36,000  Level FlightAware ADS-B
Fri 07:45:53 PM 36.0523 -83.8499 194° South 423 487 36,000  Level FlightAware ADS-B
Fri 07:46:27 PM 35.9880 -83.8693 194° South 423 487 36,000  Level FlightAware ADS-B
Fri 07:47:02 PM 35.9214 -83.8895 194° South 423 487 36,000  Level FlightAware ADS-B
Fri 07:47:29 PM 35.8692 -83.9046 193° South 425 489 36,000  Level FlightAware ADS-B
Fri 07:48:00 PM 35.8090 -83.9184 191° South 427 491 36,000  Level FlightAware ADS-B
Fri 07:48:32 PM 35.7479 -83.9325 191° South 428 493 36,000  Level FlightAware ADS-B
Fri 07:49:03 PM 35.6880 -83.9469 191° South 429 494 36,000  Level FlightAware ADS-B
Fri 07:49:37 PM 35.6211 -83.9632 191° South 428 493 36,000  Level FlightAware ADS-B
Fri 07:50:15 PM 35.5478 -83.9811 191° South 430 495 36,000  Level FlightAware ADS-B
Fri 07:50:45 PM 35.4885 -83.9956 191° South 430 495 36,000  Level FlightAware ADS-B
Fri 07:51:15 PM 35.4290 -84.0100 191° South 432 497 36,000  Level FlightAware ADS-B
Fri 07:51:46 PM 35.3686 -84.0247 191° South 432 497 36,000  Level FlightAware ADS-B
Fri 07:52:22 PM 35.2983 -84.0416 191° South 432 497 36,000  Level FlightAware ADS-B
Fri 07:52:53 PM 35.2378 -84.0561 191° South 433 498 36,000  Level FlightAware ADS-B
Fri 07:53:24 PM 35.1769 -84.0706 191° South 433 498 36,000  Level FlightAware ADS-B
Fri 07:54:04 PM 35.0978 -84.0896 191° South 433 498 36,000  Level FlightAware ADS-B
Fri 07:54:39 PM 35.0294 -84.1060 191° South 433 498 36,000  Level FlightAware ADS-B
Fri 07:55:39 PM 34.9110 -84.1340 191° South 434 499 36,000  Level FlightAware ADS-B
Fri 07:55:56 PM 34.8783 -84.1420 191° South 434 499 36,000  Level FlightAware ADS-B
Fri 07:56:26 PM 34.8189 -84.1562 191° South 434 499 36,000  Level FlightAware ADS-B
Fri 07:56:57 PM 34.7581 -84.1706 191° South 435 501 36,000  Level FlightAware ADS-B
Fri 07:57:27 PM 34.6972 -84.1851 191° South 435 501 36,000  Level FlightAware ADS-B
Fri 07:58:01 PM 34.6315 -84.2006 191° South 436 502 36,000  Level FlightAware ADS-B
Fri 07:58:32 PM 34.5697 -84.2152 191° South 436 502 36,000  Level FlightAware ADS-B
Fri 07:59:02 PM 34.5092 -84.2295 191° South 435 501 36,000  Level FlightAware ADS-B
Fri 07:59:33 PM 34.4487 -84.2437 191° South 435 501 36,000  Level FlightAware ADS-B
Fri 08:00:04 PM 34.3879 -84.2580 191° South 435 501 36,000  Level FlightAware ADS-B
Fri 08:00:45 PM 34.3056 -84.2775 191° South 436 502 36,000  Level FlightAware ADS-B
Fri 08:01:52 PM 34.1770 -84.3080 191° South 435 501 36,000  Level FlightAware ADS-B
Fri 08:02:47 PM 34.0680 -84.3330 191° South 436 502 36,000  Level FlightAware ADS-B
Fri 08:03:02 PM 34.0390 -84.3400 191° South 436 502 36,000 198 Level FlightAware ADS-B
Fri 08:04:18 PM 33.8852 -84.3755 191° South 433 498 36,300 393 Climbing FlightAware ADS-B
Fri 08:04:49 PM 33.8239 -84.3898 191° South 429 494 36,700 667 Climbing FlightAware ADS-B
Fri 08:05:21 PM 33.7613 -84.4043 191° South 432 497 37,000 286 Climbing FlightAware ADS-B
Fri 08:05:52 PM 33.7006 -84.4184 191° South 438 504 37,000  Level FlightAware ADS-B
Fri 08:06:17 PM 33.6492 -84.4296 190° South 443 510 37,000  Level FlightAware ADS-B
Fri 08:06:40 PM 33.6022 -84.4339 184° South 450 518 37,000  Level FlightAware ADS-B
Fri 08:07:13 PM 33.5341 -84.4335 180° South 452 520 37,000  Level FlightAware ADS-B
Fri 08:07:57 PM 33.4423 -84.4312 179° South 452 520 37,000  Level FlightAware ADS-B
Fri 08:09:10 PM 33.2896 -84.4277 179° South 449 517 37,000  Level FlightAware ADS-B
Fri 08:10:17 PM 33.1520 -84.4250 179° South 445 512 37,000  Level FlightAware ADS-B
Fri 08:10:45 PM 33.0950 -84.4240 179° South 444 511 37,000  Level FlightAware ADS-B
Fri 08:11:47 PM 32.9750 -84.4220 179° South 443 510 37,000  Level FlightAware ADS-B
Fri 08:12:17 PM 32.9120 -84.4200 178° South 442 509 37,000  Level FlightAware ADS-B
Fri 08:12:52 PM 32.8460 -84.4190 179° South 441 507 37,000  Level FlightAware ADS-B
Fri 08:13:34 PM 32.7550 -84.4170 179° South 440 506 37,000  Level FlightAware ADS-B
Fri 08:14:30 PM 32.6380 -84.4150 179° South 440 506 37,000  Level FlightAware ADS-B
Fri 08:15:22 PM 32.5320 -84.4130 179° South 439 505 37,000  Level FlightAware ADS-B
Fri 08:16:05 PM 32.4450 -84.4110 179° South 438 504 37,000  Level FlightAware ADS-B
Fri 08:16:47 PM 32.3570 -84.4090 179° South 437 503 37,000  Level FlightAware ADS-B
Fri 08:17:14 PM 32.3020 -84.4080 179° South 437 503 37,000  Level FlightAware ADS-B
Fri 08:17:57 PM 32.2160 -84.4060 179° South 436 502 37,000  Level FlightAware ADS-B
Fri 08:18:30 PM 32.1510 -84.4050 179° South 435 501 37,000  Level FlightAware ADS-B
Fri 08:18:58 PM 32.0920 -84.4040 179° South 434 499 37,000  Level FlightAware ADS-B
Fri 08:19:54 PM 31.9810 -84.4020 179° South 430 495 37,000  Level FlightAware ADS-B
Fri 08:20:23 PM 31.9230 -84.4010 179° South 428 493 37,000  Level FlightAware ADS-B
Fri 08:21:19 PM 31.8120 -84.3980 179° South 423 487 37,000  Level FlightAware ADS-B
Fri 08:22:19 PM 31.6950 -84.3960 179° South 419 482 37,000  Level FlightAware ADS-B
Fri 08:23:11 PM 31.5940 -84.3940 179° South 417 480 37,000  Level FlightAware ADS-B
Fri 08:24:12 PM 31.4800 -84.3920 179° South 416 479 37,000  Level FlightAware ADS-B
Fri 08:25:02 PM 31.3800 -84.3900 179° South 417 480 37,000  Level FlightAware ADS-B
Fri 08:25:35 PM 31.3180 -84.3890 179° South 418 481 37,000  Level FlightAware ADS-B
Fri 08:26:27 PM 31.2160 -84.3870 179° South 419 482 37,000  Level FlightAware ADS-B
Fri 08:27:01 PM 31.1510 -84.3850 178° South 420 483 37,000  Level FlightAware ADS-B
Fri 08:27:33 PM 31.0878 -84.3841 179° South 420 483 37,000  Level FlightAware ADS-B (KONZ)
Fri 08:28:44 PM 30.9500 -84.3810 179° South 425 489 37,000  Level FlightAware ADS-B
Fri 08:29:49 PM 30.8230 -84.3790 179° South 419 482 37,000  Level FlightAware ADS-B
Fri 08:30:32 PM 30.7400 -84.3770 179° South 415 478 37,000  Level FlightAware ADS-B
Fri 08:31:08 PM 30.6799 -84.3762 179° South 412 474 37,000  Level FlightAware ADS-B (KONZ)
Fri 08:31:38 PM 30.6175 -84.3749 179° South 411 473 37,000  Level FlightAware ADS-B (KONZ)
Fri 08:32:02 PM 30.5666 -84.3709 176° South 428 493 37,000  Level FlightAware ADS-B (KONZ)
Fri 08:32:59 PM 30.4620 -84.3130 154° Southeast 457 526 37,000  Level FlightAware ADS-B
Fri 08:33:12 PM 30.4363 -84.2965 151° Southeast 460 529 37,000  Level FlightAware ADS-B (KONZ)
Fri 08:33:47 PM 30.3720 -84.2540 150° Southeast 461 531 37,000  Level FlightAware ADS-B
Fri 08:34:05 PM 30.3386 -84.2318 150° Southeast 461 531 37,000  Level FlightAware ADS-B (KONZ)
Fri 08:34:33 PM 30.2931 -84.1919 143° Southeast 481 554 37,000  Level FlightAware ADS-B (KONZ)
Fri 08:35:17 PM 30.2278 -84.1001 129° Southeast 485 558 37,000  Level FlightAware ADS-B (KONZ)
Fri 08:35:50 PM 30.1810 -84.0340 129° Southeast 490 564 37,000  Level FlightAware ADS-B
Fri 08:36:27 PM 30.1200 -83.9710 138° Southeast 474 545 37,000  Level FlightAware ADS-B
Fri 08:36:57 PM 30.0636 -83.9316 149° Southeast 475 547 37,000  Level FlightAware ADS-B (KONZ)
Fri 08:38:11 PM 29.9170 -83.8580 156° South 465 535 37,000  Level FlightAware ADS-B
Fri 08:38:55 PM 29.8310 -83.8160 157° South 467 537 37,000  Level FlightAware ADS-B
Fri 08:39:46 PM 29.7300 -83.7650 156° South 466 536 37,000  Level FlightAware ADS-B
Fri 08:40:30 PM 29.6430 -83.7210 156° South 466 536 37,000  Level FlightAware ADS-B
Fri 08:41:11 PM 29.5610 -83.6790 156° South 466 536 37,000  Level FlightAware ADS-B
Fri 08:41:42 PM 29.5000 -83.6490 157° South 466 536 37,000  Level FlightAware ADS-B
Fri 08:42:20 PM 29.4240 -83.6110 156° South 466 536 37,000  Level FlightAware ADS-B
Fri 08:43:16 PM 29.3170 -83.5570 156° South 467 537 37,000  Level FlightAware ADS-B
Fri 08:44:08 PM 29.2130 -83.5030 156° South 472 543 37,000  Level FlightAware ADS-B
Fri 08:45:01 PM 29.1080 -83.4370 151° Southeast 474 545 37,000  Level FlightAware ADS-B
Fri 08:45:56 PM 29.0020 -83.3700 151° Southeast 476 548 37,000  Level FlightAware ADS-B
Fri 08:46:50 PM 28.8990 -83.3050 151° Southeast 476 548 37,000  Level FlightAware ADS-B
Fri 08:47:34 PM 28.8150 -83.2520 151° Southeast 476 548 37,000  Level FlightAware ADS-B
Fri 08:48:29 PM 28.7080 -83.1840 151° Southeast 476 548 37,000  Level FlightAware ADS-B
Fri 08:49:02 PM 28.6450 -83.1440 151° Southeast 476 548 37,000  Level FlightAware ADS-B
Fri 08:49:47 PM 28.5580 -83.0900 151° Southeast 474 545 37,000  Level FlightAware ADS-B
Fri 08:50:44 PM 28.4490 -83.0220 151° Southeast 473 544 37,000  Level FlightAware ADS-B
Fri 08:51:38 PM 28.3450 -82.9570 151° Southeast 470 541 37,000  Level FlightAware ADS-B
Fri 08:52:40 PM 28.2298 -82.8844 151° Southeast 468 539 37,000  Level FlightAware ADS-B
Fri 08:53:30 PM 28.1350 -82.8250 151° Southeast 466 536 37,000  Level FlightAware ADS-B
Fri 08:54:19 PM 28.0400 -82.7661 151° Southeast 466 536 37,000  Level FlightAware ADS-B
Fri 08:54:51 PM 27.9792 -82.7285 151° Southeast 465 535 37,000  Level FlightAware ADS-B
Fri 08:55:52 PM 27.8570 -82.6822 161° South 449 517 37,000 -360 Level FlightAware ADS-B
Fri 08:56:31 PM 27.7760 -82.6780 177° South 452 520 36,400 -938 Descending FlightAware ADS-B
Fri 08:56:56 PM 27.7266 -82.6761 178° South 453 521 36,000 -436 Descending FlightAware ADS-B
Fri 08:57:26 PM 27.6607 -82.6733 178° South 453 521 36,000  Level FlightAware ADS-B
Fri 08:58:00 PM 27.5891 -82.6703 178° South 456 525 36,000  Level FlightAware ADS-B
Fri 08:58:41 PM 27.5030 -82.6670 178° South 460 529 36,000  Level FlightAware ADS-B
Fri 08:59:23 PM 27.4140 -82.6630 178° South 460 529 36,000  Level FlightAware ADS-B
Fri 08:59:58 PM 27.3440 -82.6600 178° South 462 532 36,000  Level FlightAware ADS-B
Fri 09:00:47 PM 27.2320 -82.6550 178° South 466 536 36,000  Level FlightAware ADS-B
Fri 09:01:38 PM 27.1240 -82.6500 178° South 467 537 36,000  Level FlightAware ADS-B
Fri 09:02:31 PM 27.0070 -82.6450 178° South 467 537 36,000  Level FlightAware ADS-B
Fri 09:03:28 PM 26.8850 -82.6400 178° South 467 537 36,000  Level FlightAware ADS-B
Fri 09:04:13 PM 26.7880 -82.6360 178° South 466 536 36,000  Level FlightAware ADS-B
Fri 09:04:56 PM 26.6940 -82.6320 178° South 466 536 36,000  Level FlightAware ADS-B
Fri 09:05:25 PM 26.6320 -82.6290 178° South 465 535 36,000  Level FlightAware ADS-B
Fri 09:06:12 PM 26.5310 -82.6250 178° South 464 534 36,000  Level FlightAware ADS-B
Fri 09:06:43 PM 26.4633 -82.6216 177° South 465 535 36,000  Level FlightAware ADS-B
Fri 09:07:21 PM 26.3827 -82.6182 178° South 466 536 36,000  Level FlightAware ADS-B
Fri 09:08:05 PM 26.2870 -82.6140 178° South 466 536 36,000  Level FlightAware ADS-B
Fri 09:08:36 PM 26.2220 -82.6110 178° South 467 537 36,000  Level FlightAware ADS-B
Fri 09:09:08 PM 26.1520 -82.6080 178° South 467 537 36,000  Level FlightAware ADS-B
Fri 09:10:09 PM 26.0190 -82.6030 178° South 467 537 36,000  Level FlightAware ADS-B
Fri 09:10:33 PM 25.9670 -82.6010 178° South 468 539 36,000  Level FlightAware ADS-B
Fri 09:11:06 PM 25.8970 -82.5980 178° South 468 539 36,000  Level FlightAware ADS-B
Fri 09:11:54 PM 25.7900 -82.5930 178° South 468 539 36,000  Level FlightAware ADS-B
Fri 09:12:12 PM 25.8484 -82.5955 358° North 468 539 36,000  Level FlightAware ADS-B
Fri 09:12:53 PM 25.6640 -82.5880 178° South 467 537 36,000  Level FlightAware ADS-B
Fri 09:13:50 PM 25.5400 -82.5830 178° South 468 539 36,000  Level FlightAware ADS-B
Fri 09:14:26 PM 25.4610 -82.5790 177° South 468 539 36,000  Level FlightAware ADS-B
Fri 09:15:21 PM 25.3440 -82.5740 178° South 469 540 36,000  Level FlightAware ADS-B
Fri 09:16:09 PM 25.2390 -82.5700 178° South 470 541 36,000  Level FlightAware ADS-B
Fri 09:16:49 PM 25.1520 -82.5660 178° South 471 542 36,000  Level FlightAware ADS-B
Fri 09:17:18 PM 25.0900 -82.5640 178° South 468 539 36,000 -393 Level FlightAware ADS-B
Fri 09:17:50 PM 25.0190 -82.5610 178° South 461 531 35,600 -1,301 Descending FlightAware ADS-B
Fri 09:18:41 PM 24.9090 -82.5560 178° South 465 535 34,200 -1,636 Descending FlightAware ADS-B
Fri 09:19:18 PM 24.8360 -82.5530 178° South 448 516 33,200 -1,724 Descending FlightAware ADS-B
Fri 09:20:08 PM 24.7320 -82.5490 178° South 436 502 31,700 -1,787 Descending FlightAware ADS-B
Fri 09:20:52 PM 24.6440 -82.5450 178° South 415 478 30,400 -944 Descending FlightAware ADS-B
Fri 09:21:37 PM 24.5770 -82.5430 178° South 415 478 30,300 -962 Descending FlightAware ADS-B
Fri 09:22:38 PM 24.4570 -82.5380 178° South 415 478 28,700 -873 Descending FlightAware ADS-B
Fri 09:23:27 PM 24.3770 -82.5350 178° South 415 478 28,700  Level FlightAware ADS-B
Fri 09:23:51 PM 24.3380 -82.5330 177° South 415 478 28,700  Level FlightAware ADS-B
Fri 09:24:40 PM 24.2580 -82.5300 178° South 415 478 28,700  Level FlightAware ADS-B
Fri 09:25:41 PM 24.1580 -82.5260 178° South 415 478 28,700 -3,328 Level FlightAware ADS-B
Fri 09:26:39 PM 24.0250 -82.5242 178° South 388 447 22,100 -6,828 Descending Miami Center
Fri 09:28:00 PM 23.8695 -82.4980 173° South  Level FlightAware Approximate
Fri 09:35:00 PM 23.0637 -82.4027 170° South  Level FlightAware Approximate
Fri 09:36:00 PM 22.9891 -82.4091 180° South  Level Estimated
Fri 09:37:00 PM 22.9891 -82.4091 180° South  Level Estimated
Fri 09:38:00 PM 22.9891 -82.4091 180° South  Level Estimated
Fri 09:39:00 PM 22.9891 -82.4091 180° South  Level Estimated
Fri 09:40:00 PM 22.9891 -82.4091 180° South  Level Estimated
Fri 09:41:00 PM 22.9891 -82.4091 180° South  Level Estimated
Fri 09:42:00 PM 22.9891 -82.4091 180° South  Level Estimated
Fri 09:43:00 PM 22.9891 -82.4091 180° South  Level Estimated
Fri 09:44:00 PM 22.9891 -82.4091 180° South  Level Estimated
Fri 09:45:00 PM 22.9891 -82.4091 180° South  Level Estimated
Fri 09:46:00 PM 22.9891 -82.4091 180° South  Level Estimated
Fri 09:47:00 PM 22.9891 -82.4091 180° South  Level Estimated
Fri 09:48:00 PM 22.9891 -82.4091 180° South  Level Estimated
Fri 09:49:00 PM 22.9891 -82.4091 180° South  Level Estimated
Fri 09:50:00 PM 22.9891 -82.4091 180° South  Level Estimated
Fri 09:51:00 PM 22.9891 -82.4091 180° South  Level Estimated
Fri 09:52:00 PM 22.9891 -82.4091 180° South  Level Estimated
Fri 09:53:00 PM 22.9891 -82.4091 180° South  Level Estimated
Fri 09:54:00 PM 22.9891 -82.4091 180° South  Level Estimated
Fri 09:55:00 PM 22.9891 -82.4091 180° South  Level Estimated
Fri 09:56:00 PM 22.9891 -82.4091 180° South  Level Estimated
Fri 09:57:00 PM 22.9891 -82.4091 180° South  Level Estimated

Login

Don't have an account? Register now (free) for customized features, flight alerts, and more!